Time;durP1;ratioP1;P1;durP2;ratioP2;P2;SDS_P1;SDS_P2;PMS_P1;PMS_P2;Temp;Humidity;BMP_temperature;BMP_pressure;BME280_temperature;BME280_humidity;BME280_pressure;Samples;Min_cycle;Max_cycle;Signal;HPM_P1;HPM_P2
2021/11/30 00:01:03;;;;;;;18.52;10.18;;;;;;;20.21;20.55;96839.66;5025295;28;20120;-77
2021/11/30 00:03:29;;;;;;;15.75;8.60;;;;;;;18.97;21.92;96847.38;5038572;28;20057;-77
2021/11/30 00:05:56;;;;;;;18.85;9.48;;;;;;;18.30;22.58;96856.97;5023419;28;20034;-77
2021/11/30 00:08:27;;;;;;;14.98;8.63;;;;;;;18.44;22.72;96853.94;5030581;28;20099;-77
2021/11/30 00:10:54;;;;;;;17.05;9.07;;;;;;;18.85;21.79;96850.00;5030269;28;20048;-77
2021/11/30 00:13:22;;;;;;;14.85;8.48;;;;;;;19.47;21.30;96849.84;5029612;28;20029;-77
2021/11/30 00:15:52;;;;;;;18.20;9.48;;;;;;;17.45;23.50;96857.59;5035018;28;20037;-77
2021/11/30 00:18:18;;;;;;;16.83;8.57;;;;;;;16.26;25.46;96857.88;5035116;28;20034;-77
2021/11/30 00:20:45;;;;;;;18.27;9.88;;;;;;;17.65;23.45;96866.81;5029970;28;20432;-77
2021/11/30 00:23:13;;;;;;;18.08;8.90;;;;;;;18.27;22.96;96868.16;5029060;28;20053;-77
2021/11/30 00:25:39;;;;;;;15.13;7.78;;;;;;;18.13;23.01;96877.53;5031571;28;20038;-77
2021/11/30 00:28:07;;;;;;;19.70;9.95;;;;;;;17.32;24.11;96876.00;5034213;28;20072;-77
2021/11/30 00:30:34;;;;;;;18.63;9.77;;;;;;;18.70;22.21;96876.50;5036554;28;20040;-77
2021/11/30 00:33:01;;;;;;;16.98;8.85;;;;;;;18.56;22.58;96875.59;5032854;28;20030;-77
2021/11/30 00:35:28;;;;;;;13.10;7.07;;;;;;;18.44;22.65;96903.16;5026491;28;20099;-77
2021/11/30 00:37:55;;;;;;;17.45;7.93;;;;;;;18.60;22.48;96889.41;5034236;28;20079;-77
2021/11/30 00:40:21;;;;;;;13.77;7.55;;;;;;;18.95;22.19;96893.50;5035678;28;20041;-77
2021/11/30 00:42:48;;;;;;;15.68;7.85;;;;;;;19.11;21.97;96893.56;5030806;28;20025;-77
2021/11/30 00:45:18;;;;;;;17.25;8.52;;;;;;;17.83;23.60;96900.63;5040642;28;20037;-77
2021/11/30 00:47:57;;;;;;;15.98;9.60;;;;;;;17.75;23.81;96912.28;5036734;28;20028;-77
2021/11/30 00:50:26;;;;;;;17.73;8.00;;;;;;;17.94;23.66;96915.16;5036089;28;20451;-77
2021/11/30 00:52:54;;;;;;;20.83;9.45;;;;;;;18.25;23.67;96917.81;5029486;28;20029;-77
2021/11/30 00:55:21;;;;;;;15.05;8.35;;;;;;;17.78;24.26;96928.09;5047105;28;20094;-77
2021/11/30 00:57:47;;;;;;;16.15;8.23;;;;;;;17.55;25.14;96939.16;5039123;28;20018;-77
2021/11/30 01:00:18;;;;;;;15.15;8.27;;;;;;;18.62;23.38;96925.91;5033519;28;20132;-77
2021/11/30 01:02:45;;;;;;;13.82;7.80;;;;;;;18.48;23.44;96937.28;5039693;28;20055;-77
2021/11/30 01:05:13;;;;;;;15.02;8.48;;;;;;;19.22;22.74;96955.34;5037085;28;20029;-77
2021/11/30 01:07:39;;;;;;;15.38;7.82;;;;;;;19.19;22.71;96947.84;5029502;28;20454;-77
2021/11/30 01:10:23;;;;;;;15.55;8.32;;;;;;;19.43;22.48;96943.78;5034018;28;20057;-77
2021/11/30 01:12:49;;;;;;;16.38;8.93;;;;;;;19.36;22.39;96948.72;5031362;28;20109;-77
2021/11/30 01:15:17;;;;;;;14.75;8.82;;;;;;;18.19;24.36;96956.41;5026784;28;20052;-77
2021/11/30 01:17:44;;;;;;;17.63;10.27;;;;;;;17.37;24.93;96944.88;5029915;28;20134;-77
2021/11/30 01:20:11;;;;;;;14.95;8.48;;;;;;;18.16;24.27;96964.78;5028808;28;20040;-77
2021/11/30 01:22:38;;;;;;;17.70;9.68;;;;;;;16.87;25.67;96961.38;5028644;28;20048;-77
2021/11/30 01:25:06;;;;;;;16.55;8.98;;;;;;;17.98;24.71;96970.63;5028719;28;20033;-77
2021/11/30 01:27:32;;;;;;;17.67;9.32;;;;;;;18.38;24.04;96969.59;5027011;28;20029;-77
2021/11/30 01:29:58;;;;;;;13.82;8.15;;;;;;;18.50;23.88;96969.00;5032301;28;20029;-77
2021/11/30 01:32:24;;;;;;;15.63;9.48;;;;;;;18.73;23.50;96959.88;5028328;28;20139;-77
2021/11/30 01:34:50;;;;;;;15.23;8.32;;;;;;;17.86;24.67;96969.22;5031858;28;20041;-77
2021/11/30 01:37:17;;;;;;;19.88;9.52;;;;;;;16.79;25.94;96959.84;5030617;28;20025;-77
2021/11/30 01:39:46;;;;;;;14.15;8.63;;;;;;;17.08;25.80;96974.97;5027667;28;20103;-77
2021/11/30 01:42:14;;;;;;;18.40;9.85;;;;;;;17.17;25.56;96972.50;5029374;28;20474;-77
2021/11/30 01:44:55;;;;;;;15.63;8.38;;;;;;;17.45;25.55;96971.34;5031040;28;20045;-77
2021/11/30 01:47:58;;;;;;;17.38;8.45;;;;;;;18.34;24.25;96976.41;5028376;28;20029;-77
2021/11/30 01:50:11;;;;;;;13.02;6.90;;;;;;;18.57;23.94;96980.00;5028197;28;20068;-78
2021/11/30 01:52:38;;;;;;;16.48;8.95;;;;;;;18.41;24.24;96987.41;5026995;28;20504;-77
2021/11/30 01:55:05;;;;;;;13.30;8.02;;;;;;;18.68;23.63;96990.13;5026949;28;20029;-77
2021/11/30 01:57:31;;;;;;;16.98;8.18;;;;;;;19.40;23.06;96986.41;5020776;28;20033;-77
2021/11/30 01:59:58;;;;;;;13.70;8.65;;;;;;;18.03;24.56;96991.56;5031269;28;20056;-78
2021/11/30 02:02:24;;;;;;;18.35;9.90;;;;;;;17.40;25.24;96984.88;5030290;28;20032;-77
2021/11/30 02:04:50;;;;;;;16.10;8.98;;;;;;;17.40;25.40;96984.88;5024129;28;20026;-78
2021/11/30 02:07:17;;;;;;;13.35;8.15;;;;;;;18.52;24.17;96994.38;5030656;28;20056;-77
2021/11/30 02:09:45;;;;;;;15.63;8.32;;;;;;;18.85;23.81;96991.81;5025998;28;20037;-77
2021/11/30 02:12:12;;;;;;;14.43;8.45;;;;;;;18.95;23.41;96982.50;5024835;28;20474;-77
2021/11/30 02:14:41;;;;;;;18.73;9.77;;;;;;;19.55;22.50;96992.47;5030539;28;20036;-77
2021/11/30 02:17:08;;;;;;;12.85;8.40;;;;;;;18.27;23.95;96996.75;5030756;28;20037;-77
2021/11/30 02:19:45;;;;;;;12.73;7.80;;;;;;;19.06;23.28;96999.78;5029077;28;20112;-77
2021/11/30 02:22:13;;;;;;;14.38;7.57;;;;;;;19.28;23.06;97000.91;5030339;28;20046;-77
2021/11/30 02:24:40;;;;;;;14.05;7.00;;;;;;;18.75;23.40;97006.69;5031163;28;20367;-77
2021/11/30 02:27:06;;;;;;;11.57;7.13;;;;;;;18.25;23.91;97004.72;5030155;28;20496;-77
2021/11/30 02:29:32;;;;;;;12.82;7.63;;;;;;;19.31;22.87;97008.41;5031144;28;20500;-77
2021/11/30 02:31:58;;;;;;;13.02;7.43;;;;;;;20.13;21.86;97008.28;5030957;28;20037;-77
2021/11/30 02:34:24;;;;;;;11.68;6.10;;;;;;;19.73;22.30;97004.00;5034060;28;20077;-77
2021/11/30 02:36:52;;;;;;;13.70;7.32;;;;;;;19.96;21.83;97009.44;5033807;28;20029;-77
2021/11/30 02:39:21;;;;;;;12.13;7.35;;;;;;;18.49;23.68;97023.03;5029581;28;20508;-77
2021/11/30 02:41:51;;;;;;;13.23;7.40;;;;;;;18.47;23.70;97022.66;5035439;28;20040;-77
2021/11/30 02:44:19;;;;;;;11.27;6.63;;;;;;;18.93;23.42;97007.94;5032307;28;20069;-77
2021/11/30 02:46:57;;;;;;;9.18;5.55;;;;;;;18.63;23.61;97016.44;5031138;28;20029;-77
2021/11/30 02:49:26;;;;;;;12.18;7.40;;;;;;;18.01;24.14;97007.88;5029698;28;20389;-77
2021/11/30 02:52:02;;;;;;;10.60;7.15;;;;;;;18.05;24.02;97017.72;5030706;28;20030;-77
2021/11/30 02:54:28;;;;;;;12.77;7.05;;;;;;;16.88;25.51;97012.81;5030977;28;20052;-77
2021/11/30 02:56:58;;;;;;;12.23;7.97;;;;;;;17.94;24.35;97017.91;5031087;28;20080;-78
2021/11/30 02:59:26;;;;;;;11.95;7.00;;;;;;;18.48;23.68;97015.13;5032469;28;20437;-77
2021/11/30 03:01:58;;;;;;;9.48;5.80;;;;;;;18.28;23.81;97020.56;5027097;28;20034;-77
2021/11/30 03:04:25;;;;;;;13.65;8.35;;;;;;;18.41;23.71;97017.97;5031928;28;20029;-77
2021/11/30 03:06:52;;;;;;;13.45;7.60;;;;;;;17.16;25.44;97020.84;5030691;28;20033;-77
2021/11/30 03:09:19;;;;;;;12.88;7.47;;;;;;;18.07;24.36;97020.06;5032426;28;20039;-77
2021/11/30 03:11:45;;;;;;;10.75;7.05;;;;;;;18.33;24.24;97025.63;5034582;28;20107;-78
2021/11/30 03:14:12;;;;;;;11.85;7.13;;;;;;;19.12;23.11;97023.88;5026085;28;20120;-77
2021/11/30 03:16:39;;;;;;;10.25;6.55;;;;;;;20.05;21.91;97023.56;5030970;28;20033;-77
2021/11/30 03:19:06;;;;;;;8.98;5.63;;;;;;;20.33;21.59;97030.53;5032158;28;20037;-78
2021/11/30 03:21:33;;;;;;;12.32;6.60;;;;;;;20.52;21.33;97026.88;5034606;28;20099;-77
2021/11/30 03:24:00;;;;;;;11.20;6.80;;;;;;;20.78;20.96;97030.63;5029567;28;20037;-78
2021/11/30 03:26:26;;;;;;;12.60;7.30;;;;;;;20.18;21.57;97034.84;5030476;28;20358;-77
2021/11/30 03:28:53;;;;;;;10.77;6.80;;;;;;;20.45;21.47;97035.41;5031738;28;20040;-77
2021/11/30 03:31:33;;;;;;;11.98;6.57;;;;;;;20.85;20.85;97039.59;5032753;28;20033;-77
2021/11/30 03:34:06;;;;;;;10.18;6.18;;;;;;;20.44;21.20;97039.44;5030218;28;20048;-77
2021/11/30 03:36:34;;;;;;;9.30;5.95;;;;;;;20.45;21.05;97027.06;5031302;28;20029;-77
2021/11/30 03:39:03;;;;;;;9.52;6.63;;;;;;;20.82;20.64;97032.09;5027432;28;20052;-77
2021/11/30 03:41:33;;;;;;;9.15;5.63;;;;;;;20.11;21.69;97023.84;5027366;28;20175;-77
2021/11/30 03:44:00;;;;;;;7.50;5.35;;;;;;;20.70;21.05;97027.22;5025820;28;20049;-77
2021/11/30 03:46:27;;;;;;;7.18;4.88;;;;;;;20.99;20.79;97019.69;5028735;28;20034;-77
2021/11/30 03:48:53;;;;;;;8.48;5.40;;;;;;;21.52;20.00;97023.84;5024241;28;20560;-77
2021/11/30 03:51:20;;;;;;;9.40;6.32;;;;;;;22.00;19.38;97020.09;5033109;28;20112;-77
2021/11/30 03:53:46;;;;;;;11.05;6.63;;;;;;;21.68;19.74;97028.59;5033497;28;20034;-77
2021/11/30 03:56:12;;;;;;;10.63;6.38;;;;;;;21.13;20.45;97024.16;5027714;28;20052;-77
2021/11/30 03:58:38;;;;;;;12.70;6.13;;;;;;;20.45;21.07;97032.63;5026922;28;20026;-77
2021/11/30 04:01:04;;;;;;;11.70;7.05;;;;;;;19.46;22.17;97037.59;5026420;28;20040;-77
2021/11/30 04:03:33;;;;;;;12.35;7.28;;;;;;;19.87;21.80;97028.75;5031515;28;20039;-77
2021/11/30 04:06:00;;;;;;;10.57;5.53;;;;;;;20.26;21.45;97022.31;5031690;28;20037;-77
2021/11/30 04:08:26;;;;;;;14.85;7.30;;;;;;;20.28;21.28;97026.25;5028147;28;20030;-77
2021/11/30 04:10:52;;;;;;;9.05;5.45;;;;;;;20.96;20.78;97025.34;5033865;28;20116;-77
2021/11/30 04:13:18;;;;;;;8.63;5.65;;;;;;;20.89;20.76;97020.75;5027073;28;20498;-77
2021/11/30 04:15:44;;;;;;;11.93;6.47;;;;;;;19.67;21.56;97033.56;5029268;28;20080;-77
2021/11/30 04:18:11;;;;;;;8.73;6.38;;;;;;;20.19;21.40;97028.03;5029783;28;20041;-77
2021/11/30 04:20:37;;;;;;;8.50;5.25;;;;;;;20.67;21.09;97028.13;5029461;28;20032;-77
2021/11/30 04:23:03;;;;;;;8.57;5.10;;;;;;;21.07;20.44;97031.50;5029760;28;20041;-77
2021/11/30 04:25:29;;;;;;;8.38;6.10;;;;;;;21.42;20.03;97035.34;5030851;28;20041;-77
2021/11/30 04:27:55;;;;;;;9.68;6.13;;;;;;;21.00;20.38;97028.88;5029910;28;20516;-77
2021/11/30 04:30:22;;;;;;;9.18;5.25;;;;;;;19.88;21.77;97033.13;5031294;28;20049;-77
2021/11/30 04:32:48;;;;;;;9.70;5.97;;;;;;;19.42;22.45;97047.22;5028963;28;20033;-77
2021/11/30 04:35:15;;;;;;;9.40;5.38;;;;;;;19.53;22.07;97033.88;5033155;28;20132;-77
2021/11/30 04:37:41;;;;;;;9.38;6.03;;;;;;;20.42;21.21;97053.03;5025083;28;20401;-77
2021/11/30 04:40:10;;;;;;;10.30;6.40;;;;;;;20.50;20.83;97041.25;5030450;28;20060;-77
2021/11/30 04:42:38;;;;;;;10.25;6.47;;;;;;;20.34;21.18;97044.03;5023090;28;20438;-77
2021/11/30 04:45:08;;;;;;;10.20;5.80;;;;;;;20.24;21.26;97045.06;5031706;28;20113;-77
2021/11/30 04:47:37;;;;;;;9.30;5.53;;;;;;;19.67;21.94;97050.28;5030192;28;20516;-77
2021/11/30 04:50:08;;;;;;;7.30;4.75;;;;;;;20.45;20.97;97050.16;5029851;28;20097;-77
2021/11/30 04:52:37;;;;;;;8.77;5.95;;;;;;;20.93;20.50;97043.00;5026000;28;20168;-77
2021/11/30 04:55:03;;;;;;;7.72;5.38;;;;;;;20.62;20.97;97037.78;5021332;28;20038;-77
2021/11/30 04:57:29;;;;;;;10.90;5.82;;;;;;;20.35;21.21;97048.38;5030423;28;20072;-77
2021/11/30 04:59:56;;;;;;;8.10;5.50;;;;;;;20.49;20.87;97042.47;5032543;28;20026;-77
2021/11/30 05:02:22;;;;;;;7.60;5.35;;;;;;;19.84;21.64;97046.31;5023286;28;20084;-77
2021/11/30 05:04:49;;;;;;;7.15;4.63;;;;;;;20.33;21.11;97048.03;5026721;28;20096;-77
2021/11/30 05:07:17;;;;;;;6.93;5.22;;;;;;;19.74;21.87;97047.34;5031825;28;20056;-77
2021/11/30 05:09:44;;;;;;;7.88;5.47;;;;;;;19.45;22.08;97044.34;5027879;28;20029;-77
2021/11/30 05:12:11;;;;;;;7.53;5.60;;;;;;;19.78;21.62;97054.41;5024479;28;20029;-77
2021/11/30 05:14:38;;;;;;;8.32;5.57;;;;;;;18.90;22.97;97055.31;5030832;28;20067;-78
2021/11/30 05:17:04;;;;;;;6.97;5.10;;;;;;;19.52;22.00;97044.22;5031358;28;20034;-77
2021/11/30 05:19:30;;;;;;;7.22;5.07;;;;;;;20.43;21.33;97044.22;5026603;28;20026;-78
2021/11/30 05:21:56;;;;;;;7.78;5.18;;;;;;;20.58;20.94;97041.88;5020917;28;20590;-78
2021/11/30 05:24:23;;;;;;;7.13;5.20;;;;;;;20.53;20.82;97040.41;5030509;28;20481;-77
2021/11/30 05:26:49;;;;;;;9.20;6.07;;;;;;;20.40;21.06;97042.28;5025929;28;20034;-77
2021/11/30 05:29:16;;;;;;;5.90;4.50;;;;;;;20.37;21.14;97045.19;5021440;28;20030;-77
2021/11/30 05:31:42;;;;;;;6.40;4.97;;;;;;;20.26;21.46;97041.84;5022794;28;20030;-78
2021/11/30 05:34:08;;;;;;;6.05;4.03;;;;;;;19.31;22.18;97050.16;5026295;28;20504;-78
2021/11/30 05:36:34;;;;;;;7.35;5.13;;;;;;;18.45;23.11;97054.81;5030684;28;20112;-78
2021/11/30 05:39:02;;;;;;;6.00;4.60;;;;;;;18.89;22.74;97050.94;5026285;28;20100;-78
2021/11/30 05:41:28;;;;;;;5.22;4.28;;;;;;;18.39;23.42;97046.16;5027625;28;20034;-79
2021/11/30 05:43:55;;;;;;;6.60;4.85;;;;;;;18.20;23.80;97055.22;5020203;28;20029;-79
2021/11/30 05:46:21;;;;;;;6.93;4.65;;;;;;;18.60;23.17;97056.97;5025923;28;20112;-77
2021/11/30 05:48:47;;;;;;;6.43;4.40;;;;;;;19.44;22.25;97042.78;5030938;28;20018;-77
2021/11/30 05:51:13;;;;;;;5.18;3.72;;;;;;;19.24;22.39;97055.88;5030198;28;20042;-77
2021/11/30 05:53:40;;;;;;;4.80;4.07;;;;;;;19.10;22.36;97053.34;5028505;28;20057;-76
2021/11/30 05:56:08;;;;;;;7.22;4.60;;;;;;;19.20;22.41;97046.81;5030492;28;20048;-77
2021/11/30 05:58:38;;;;;;;9.05;4.97;;;;;;;18.67;22.84;97056.06;5022729;28;20041;-78
2021/11/30 06:01:10;;;;;;;6.07;3.53;;;;;;;19.68;21.72;97047.06;5031226;28;20456;-77
2021/11/30 06:06:16;;;;;;;6.75;4.68;;;;;;;17.81;23.69;97052.97;5031564;28;20050;-78
2021/11/30 06:08:42;;;;;;;4.70;3.45;;;;;;;17.61;24.26;97065.94;5028238;28;20417;-78
2021/11/30 06:11:08;;;;;;;6.68;4.40;;;;;;;18.31;23.32;97063.38;5035614;28;20099;-79
2021/11/30 06:13:34;;;;;;;5.72;4.03;;;;;;;17.81;23.87;97058.53;5035260;28;20025;-79
2021/11/30 06:16:00;;;;;;;6.63;4.55;;;;;;;18.41;22.59;97040.22;5035598;28;20405;-78
2021/11/30 06:18:27;;;;;;;5.28;3.78;;;;;;;18.56;22.80;97055.47;5035442;28;20040;-79
2021/11/30 06:20:53;;;;;;;6.25;3.83;;;;;;;17.90;23.25;97046.91;5032077;28;20378;-79
2021/11/30 06:23:19;;;;;;;9.43;4.05;;;;;;;19.06;22.21;97045.06;5033662;28;20579;-77
2021/11/30 06:25:45;;;;;;;6.07;3.88;;;;;;;20.06;20.93;97041.88;5035825;28;20037;-78
2021/11/30 06:28:13;;;;;;;7.18;4.28;;;;;;;18.80;22.24;97042.38;5036092;28;20117;-77
2021/11/30 06:30:39;;;;;;;6.22;4.63;;;;;;;19.59;21.23;97046.84;5028282;28;20125;-78
2021/11/30 06:33:05;;;;;;;5.57;3.90;;;;;;;19.45;21.34;97047.13;5034482;28;20030;-77
2021/11/30 06:35:31;;;;;;;4.75;3.53;;;;;;;20.39;20.68;97028.81;5035066;28;20091;-77
2021/11/30 06:37:57;;;;;;;5.22;3.97;;;;;;;19.97;21.06;97038.91;5036100;28;20061;-77
2021/11/30 06:40:24;;;;;;;5.00;3.70;;;;;;;21.23;19.75;97040.63;5034170;28;20033;-77
2021/11/30 06:42:50;;;;;;;7.82;4.18;;;;;;;20.88;19.83;97035.94;5036349;28;20384;-77
2021/11/30 06:45:16;;;;;;;5.32;3.92;;;;;;;20.22;20.59;97035.56;5035374;28;20084;-78
2021/11/30 06:47:43;;;;;;;5.50;3.28;;;;;;;19.55;21.34;97032.22;5036606;28;20034;-77
2021/11/30 06:50:10;;;;;;;5.45;3.53;;;;;;;20.53;20.47;97050.75;5036357;28;20499;-78
2021/11/30 06:52:38;;;;;;;6.03;3.05;;;;;;;20.29;20.74;97050.13;5034874;28;20072;-77
2021/11/30 06:55:06;;;;;;;5.20;3.20;;;;;;;19.62;21.26;97043.22;5035831;28;20041;-78
2021/11/30 06:57:32;;;;;;;5.68;4.28;;;;;;;19.33;21.74;97039.38;5034434;28;20030;-77
2021/11/30 07:00:02;;;;;;;7.68;5.13;;;;;;;19.18;21.90;97038.88;5033858;28;20033;-78
2021/11/30 07:02:29;;;;;;;6.63;4.45;;;;;;;19.89;21.08;97041.03;5035236;28;20493;-77
2021/11/30 07:04:59;;;;;;;8.05;4.90;;;;;;;19.44;21.60;97056.69;5032688;28;20061;-77
2021/11/30 07:15:03;;;;;;;14.70;6.93;;;;;;;19.37;21.82;97054.03;5036087;28;20095;-77
2021/11/30 07:17:29;;;;;;;12.00;6.47;;;;;;;20.07;21.26;97049.00;5033372;28;20482;-77
2021/11/30 07:19:56;;;;;;;13.02;6.28;;;;;;;19.79;21.28;97050.41;5034995;28;20025;-78
2021/11/30 07:22:22;;;;;;;14.77;5.78;;;;;;;19.16;21.67;97052.44;5035261;28;20041;-77
2021/11/30 07:24:48;;;;;;;12.18;5.80;;;;;;;19.00;22.11;97057.88;5034530;28;20107;-77
2021/11/30 07:27:14;;;;;;;15.43;7.00;;;;;;;19.38;21.51;97049.25;5035368;28;20469;-77
2021/11/30 07:29:41;;;;;;;17.00;8.00;;;;;;;19.53;21.53;97048.59;5035728;28;20046;-77
2021/11/30 07:32:08;;;;;;;12.73;5.78;;;;;;;19.13;21.82;97050.50;5035523;28;20038;-77
2021/11/30 07:34:35;;;;;;;10.98;5.28;;;;;;;19.47;21.51;97044.72;5035217;28;20042;-78
2021/11/30 07:37:01;;;;;;;11.18;6.03;;;;;;;19.46;21.19;97043.16;5021399;28;20084;-78
2021/11/30 07:39:28;;;;;;;11.20;5.32;;;;;;;19.17;21.55;97028.97;5035399;28;20109;-77
2021/11/30 07:41:54;;;;;;;8.65;4.25;;;;;;;19.25;21.54;97038.72;5034987;28;20029;-77
2021/11/30 07:44:20;;;;;;;10.88;4.95;;;;;;;19.65;20.91;97025.63;5015776;28;20030;-77
2021/11/30 07:46:46;;;;;;;11.90;4.90;;;;;;;19.91;20.65;97029.47;5030940;28;20032;-77
2021/11/30 07:49:13;;;;;;;8.25;4.85;;;;;;;19.89;20.55;97029.09;5022482;28;20034;-77
2021/11/30 07:51:39;;;;;;;8.13;4.05;;;;;;;19.54;20.87;97024.28;5034950;28;20485;-78
2021/11/30 07:54:07;;;;;;;11.10;5.18;;;;;;;19.58;20.89;97019.44;5035071;28;20413;-77
2021/11/30 07:56:33;;;;;;;9.82;5.60;;;;;;;19.76;20.96;97026.22;5035085;28;20045;-77
2021/11/30 07:58:59;;;;;;;7.25;4.45;;;;;;;19.59;21.01;97021.78;5034980;28;20512;-78
2021/11/30 08:01:26;;;;;;;12.32;5.70;;;;;;;20.75;20.08;97018.31;5034557;28;20026;-78
2021/11/30 08:03:52;;;;;;;5.78;3.60;;;;;;;20.33;20.16;97016.59;5035057;28;20064;-78
2021/11/30 08:06:18;;;;;;;6.57;3.17;;;;;;;20.36;20.37;97005.38;5033936;28;20062;-78
2021/11/30 08:08:47;;;;;;;7.55;4.82;;;;;;;20.71;19.78;97002.91;5034830;28;20036;-77
2021/11/30 08:11:13;;;;;;;6.90;3.58;;;;;;;20.99;19.65;96994.59;5034666;28;20396;-78
2021/11/30 08:13:40;;;;;;;4.60;2.50;;;;;;;20.91;19.67;97003.59;5033212;28;20030;-78
2021/11/30 08:16:07;;;;;;;4.65;3.25;;;;;;;20.86;19.90;96993.75;5034296;28;20414;-78
2021/11/30 08:18:33;;;;;;;4.88;3.20;;;;;;;21.43;19.30;96989.41;5030832;28;20030;-77
2021/11/30 08:20:59;;;;;;;5.93;2.50;;;;;;;21.15;19.44;96980.63;5034140;28;20057;-78
2021/11/30 08:23:25;;;;;;;5.50;3.13;;;;;;;21.59;19.00;96981.75;5033882;28;20073;-77
2021/11/30 08:25:52;;;;;;;3.55;2.25;;;;;;;22.12;18.84;96971.00;5034687;28;20048;-77
2021/11/30 08:28:18;;;;;;;5.00;2.35;;;;;;;22.75;18.15;96965.34;5034451;28;20477;-78
2021/11/30 08:30:46;;;;;;;5.10;2.65;;;;;;;23.40;17.73;96957.84;5034055;28;20550;-77
2021/11/30 08:33:12;;;;;;;3.85;2.47;;;;;;;23.85;16.95;96954.53;5033909;28;20393;-77
2021/11/30 08:35:38;;;;;;;4.63;2.78;;;;;;;24.08;16.71;96956.84;5033836;28;20151;-78
2021/11/30 08:38:05;;;;;;;5.47;2.58;;;;;;;24.09;16.80;96966.03;5034088;28;20524;-78
2021/11/30 08:40:32;;;;;;;4.05;1.95;;;;;;;23.97;16.61;96956.44;5034473;28;20029;-78
2021/11/30 08:42:58;;;;;;;4.25;2.05;;;;;;;24.03;16.76;96963.03;5034030;28;20040;-78
2021/11/30 08:45:24;;;;;;;5.07;2.30;;;;;;;24.10;16.76;96957.16;5027578;28;20041;-78
2021/11/30 08:47:50;;;;;;;6.40;3.60;;;;;;;23.92;16.67;96969.03;5026009;28;20057;-78
2021/11/30 08:50:18;;;;;;;6.90;3.67;;;;;;;22.92;17.43;96970.31;5034178;28;20108;-78
2021/11/30 08:52:45;;;;;;;2.88;1.58;;;;;;;23.32;17.71;96959.28;5033582;28;20040;-78
2021/11/30 08:55:12;;;;;;;5.38;3.22;;;;;;;22.35;18.09;96962.25;5032821;28;20041;-78
2021/11/30 08:57:40;;;;;;;5.45;2.50;;;;;;;22.37;18.46;96974.56;5033396;28;20045;-78
2021/11/30 09:00:13;;;;;;;6.75;3.08;;;;;;;22.90;18.08;96974.81;5034371;28;20025;-78
2021/11/30 09:02:39;;;;;;;5.43;2.78;;;;;;;22.84;17.88;96960.63;5033735;28;20045;-78
2021/11/30 09:05:07;;;;;;;6.22;2.40;;;;;;;23.36;17.98;96954.41;5033029;28;20028;-78
2021/11/30 09:07:34;;;;;;;2.97;2.35;;;;;;;23.79;17.71;96948.72;5033399;28;20033;-78
2021/11/30 09:10:00;;;;;;;4.70;2.92;;;;;;;22.48;18.23;96949.81;5033607;28;20044;-78
2021/11/30 09:12:26;;;;;;;6.70;3.47;;;;;;;22.80;17.80;96957.16;5026446;28;20458;-78
2021/11/30 09:14:53;;;;;;;5.00;2.30;;;;;;;21.42;19.35;96955.16;5014287;28;20033;-78
2021/11/30 09:17:20;;;;;;;8.25;4.50;;;;;;;21.31;19.05;96946.28;5026278;28;20041;-78
2021/11/30 09:19:46;;;;;;;4.45;2.60;;;;;;;21.69;19.16;96949.94;5030971;28;20056;-78
2021/11/30 09:22:13;;;;;;;5.72;3.17;;;;;;;22.30;18.82;96943.25;5033635;28;20425;-78
2021/11/30 09:24:39;;;;;;;6.45;3.38;;;;;;;22.97;18.31;96941.75;5033104;28;20390;-78
2021/11/30 09:27:06;;;;;;;5.65;2.85;;;;;;;23.38;17.89;96930.25;5033569;28;20057;-78
2021/11/30 09:29:32;;;;;;;8.27;3.65;;;;;;;23.43;17.34;96917.72;5032622;28;20057;-78
2021/11/30 09:31:59;;;;;;;8.65;3.58;;;;;;;23.60;17.38;96912.66;5031738;28;20108;-78
2021/11/30 09:34:25;;;;;;;6.28;2.85;;;;;;;23.77;17.32;96894.38;5013638;28;20033;-78
2021/11/30 09:36:54;;;;;;;7.45;3.60;;;;;;;23.74;17.33;96893.28;5014022;28;20364;-78
2021/11/30 09:39:21;;;;;;;10.80;5.70;;;;;;;23.48;17.80;96888.31;5025279;28;20037;-78
2021/11/30 09:41:48;;;;;;;6.22;3.58;;;;;;;23.56;17.64;96889.59;5031414;28;20493;-78
2021/11/30 09:44:16;;;;;;;7.47;4.60;;;;;;;23.77;17.17;96878.34;5033373;28;20082;-78
2021/11/30 09:46:43;;;;;;;6.88;3.08;;;;;;;23.35;17.36;96880.78;5033499;28;20117;-78
2021/11/30 09:49:09;;;;;;;6.70;3.03;;;;;;;23.32;17.39;96866.88;5032666;28;20063;-77
2021/11/30 09:51:35;;;;;;;3.50;2.03;;;;;;;23.33;17.53;96863.63;5033301;28;20037;-78
2021/11/30 09:54:02;;;;;;;2.80;1.73;;;;;;;22.34;17.99;96863.59;5033241;28;20053;-77
2021/11/30 09:56:28;;;;;;;3.92;2.53;;;;;;;22.12;18.40;96864.78;5028718;28;20445;-78
2021/11/30 09:58:54;;;;;;;2.85;1.95;;;;;;;21.72;18.52;96850.47;5032404;28;20033;-78
2021/11/30 10:01:21;;;;;;;3.83;2.03;;;;;;;21.99;17.95;96857.19;5033221;28;20029;-77
2021/11/30 10:03:47;;;;;;;4.53;2.25;;;;;;;21.58;18.56;96854.50;5032674;28;20036;-78
2021/11/30 10:06:14;;;;;;;5.82;3.30;;;;;;;22.28;18.08;96843.03;5032877;28;20033;-78
2021/11/30 10:08:46;;;;;;;4.75;3.15;;;;;;;22.01;17.58;96832.38;5030493;28;20500;-77
2021/11/30 10:11:27;;;;;;;5.03;2.78;;;;;;;22.13;18.10;96829.97;5033685;28;20401;-78
2021/11/30 10:14:12;;;;;;;4.53;1.98;;;;;;;23.05;17.74;96814.31;5033099;28;20038;-77
2021/11/30 10:16:40;;;;;;;4.45;2.38;;;;;;;22.14;18.12;96812.00;5032292;28;20041;-78
2021/11/30 10:19:06;;;;;;;4.60;2.28;;;;;;;22.32;18.32;96810.16;5033202;28;20037;-78
2021/11/30 10:21:33;;;;;;;4.82;2.17;;;;;;;22.47;17.84;96797.25;5032722;28;20038;-78
2021/11/30 10:24:05;;;;;;;3.88;2.40;;;;;;;22.52;17.84;96784.69;5032916;28;20396;-78
2021/11/30 10:26:35;;;;;;;2.83;1.88;;;;;;;23.41;16.90;96777.31;5021856;28;20041;-77
2021/11/30 10:29:05;;;;;;;2.53;1.85;;;;;;;23.35;16.93;96779.94;5030495;28;20030;-78
2021/11/30 10:31:38;;;;;;;5.22;2.63;;;;;;;22.53;17.61;96764.63;5032786;28;20160;-78
2021/11/30 10:34:28;;;;;;;2.47;1.55;;;;;;;22.96;17.24;96760.28;5032675;28;20069;-78
2021/11/30 10:36:57;;;;;;;4.28;2.60;;;;;;;21.98;17.66;96765.41;5030520;28;20413;-78
2021/11/30 10:39:30;;;;;;;1.85;1.35;;;;;;;22.40;17.75;96755.53;5033054;28;20429;-78
2021/11/30 10:42:21;;;;;;;3.30;2.25;;;;;;;22.29;17.02;96749.53;5032842;28;20135;-78
2021/11/30 10:44:53;;;;;;;6.40;3.70;;;;;;;22.27;17.75;96743.63;5032907;28;20537;-78
2021/11/30 10:47:21;;;;;;;2.75;2.05;;;;;;;21.72;17.81;96747.13;5031635;28;20034;-77
2021/11/30 10:49:49;;;;;;;4.53;2.63;;;;;;;22.09;17.56;96740.66;5025132;28;20500;-79
2021/11/30 10:52:18;;;;;;;3.42;2.25;;;;;;;21.76;17.99;96719.84;5032669;28;20041;-78
2021/11/30 10:54:44;;;;;;;3.85;2.45;;;;;;;22.21;17.70;96730.66;5036272;28;20029;-78
2021/11/30 10:57:10;;;;;;;5.30;2.45;;;;;;;22.34;17.54;96723.78;5036198;28;20155;-78
2021/11/30 10:59:37;;;;;;;5.88;2.67;;;;;;;22.29;18.04;96715.19;5036123;28;20034;-78
2021/11/30 11:02:03;;;;;;;4.57;2.10;;;;;;;23.39;16.75;96712.56;5031984;28;20029;-78
2021/11/30 11:04:33;;;;;;;3.33;1.67;;;;;;;23.15;16.93;96700.34;5036559;28;20033;-78
2021/11/30 11:07:12;;;;;;;3.03;1.60;;;;;;;22.84;16.77;96683.56;5036141;28;20490;-78
2021/11/30 11:09:47;;;;;;;2.85;2.00;;;;;;;22.72;17.22;96673.25;5036041;28;20036;-78
2021/11/30 11:12:23;;;;;;;4.45;2.03;;;;;;;23.08;16.79;96672.63;5030178;28;20034;-78
2021/11/30 11:14:50;;;;;;;2.20;1.70;;;;;;;22.75;16.58;96665.94;5031029;28;20037;-78
2021/11/30 11:17:29;;;;;;;3.20;1.90;;;;;;;22.38;16.97;96662.16;5035678;28;20366;-78
2021/11/30 11:19:55;;;;;;;4.57;2.38;;;;;;;23.43;16.56;96657.19;5035343;28;20500;-78
2021/11/30 11:22:24;;;;;;;5.50;2.33;;;;;;;22.78;16.24;96653.84;5035029;28;20497;-78
2021/11/30 11:24:55;;;;;;;2.95;2.08;;;;;;;22.71;16.77;96643.69;5034775;28;20073;-78
2021/11/30 11:27:29;;;;;;;;;;;;;;;23.05;16.24;96637.16;5036057;28;20448;-78
2021/11/30 11:29:55;;;;;;;6.03;3.03;;;;;;;22.81;16.52;96624.91;5035370;28;19913;-78
2021/11/30 11:32:23;;;;;;;10.15;6.45;;;;;;;21.95;17.07;96624.59;5033947;28;20528;-78
2021/11/30 11:34:50;;;;;;;2.83;2.03;;;;;;;21.48;17.46;96615.47;5035249;28;20044;-78
2021/11/30 11:37:16;;;;;;;7.72;4.13;;;;;;;22.26;16.98;96607.88;5035227;28;20057;-78
2021/11/30 11:39:42;;;;;;;4.70;2.33;;;;;;;21.82;17.18;96589.53;5035325;28;20389;-78
2021/11/30 11:42:11;;;;;;;4.07;2.50;;;;;;;21.89;17.31;96590.06;5034954;28;20032;-77